createdAt,value
2023-05-05T00:00:25.396Z,246.07
2023-05-05T00:01:25.499Z,247.59
2023-05-05T00:02:25.522Z,247.60
2023-05-05T00:03:25.577Z,246.35
2023-05-05T00:04:25.510Z,240.31
2023-05-05T00:05:25.543Z,240.39
2023-05-05T00:06:25.569Z,239.00
2023-05-05T00:07:25.607Z,236.48
2023-05-05T00:08:25.632Z,239.77
2023-05-05T00:09:25.681Z,241.51
2023-05-05T00:10:25.705Z,241.37
2023-05-05T00:11:25.733Z,244.48
2023-05-05T00:12:25.777Z,241.98
2023-05-05T00:13:25.821Z,247.62
2023-05-05T00:14:25.833Z,245.15
2023-05-05T00:15:25.870Z,244.59
2023-05-05T00:16:25.943Z,245.93
2023-05-05T00:17:25.955Z,245.53
2023-05-05T00:18:25.999Z,249.67
2023-05-05T00:19:26.014Z,250.00
2023-05-05T00:20:26.047Z,251.34
2023-05-05T00:21:26.093Z,249.37
2023-05-05T00:22:26.123Z,249.28
2023-05-05T00:23:26.154Z,246.22
2023-05-05T00:24:26.158Z,243.87
2023-05-05T00:25:26.164Z,243.72
2023-05-05T00:26:26.208Z,243.71
2023-05-05T00:27:26.240Z,242.12
2023-05-05T00:28:26.285Z,245.37
2023-05-05T00:29:26.296Z,245.73
2023-05-05T00:30:26.343Z,244.62
2023-05-05T00:31:26.392Z,245.57
2023-05-05T00:32:26.415Z,243.28
2023-05-05T00:33:26.369Z,241.52
2023-05-05T00:34:26.420Z,242.39
2023-05-05T00:35:26.438Z,247.81
2023-05-05T00:36:26.462Z,247.73
2023-05-05T00:37:26.487Z,246.25
2023-05-05T00:38:26.527Z,243.20
2023-05-05T00:39:26.551Z,244.99
2023-05-05T00:40:26.570Z,241.94
2023-05-05T00:41:26.603Z,241.58
2023-05-05T00:42:26.614Z,239.82
2023-05-05T00:43:26.644Z,237.54
2023-05-05T00:44:26.666Z,236.01
2023-05-05T00:45:26.664Z,234.58
2023-05-05T00:46:26.804Z,232.04
2023-05-05T00:47:26.800Z,235.85
2023-05-05T00:48:26.814Z,237.40
2023-05-05T00:49:27.468Z,244.90
2023-05-05T00:50:26.859Z,248.83
2023-05-05T00:51:26.862Z,248.71
2023-05-05T00:52:26.904Z,249.58
2023-05-05T00:53:26.950Z,249.12
2023-05-05T00:54:26.966Z,246.56
2023-05-05T00:55:26.994Z,247.66
2023-05-05T00:56:27.048Z,250.00
2023-05-05T00:57:27.086Z,250.58
2023-05-05T00:58:27.074Z,248.85
2023-05-05T00:59:27.086Z,248.40
2023-05-05T01:00:27.130Z,247.21
2023-05-05T01:01:27.242Z,246.11
2023-05-05T01:02:27.276Z,248.26
2023-05-05T01:03:27.315Z,248.84
2023-05-05T01:04:27.314Z,245.72
2023-05-05T01:05:27.356Z,245.33
2023-05-05T01:06:27.418Z,240.22
2023-05-05T01:07:27.409Z,238.51
2023-05-05T01:08:27.491Z,237.58
2023-05-05T01:09:27.472Z,236.00
2023-05-05T01:10:27.706Z,237.62
2023-05-05T01:11:27.542Z,239.24
2023-05-05T01:12:27.558Z,243.24
2023-05-05T01:13:27.596Z,242.28
2023-05-05T01:14:27.625Z,241.06
2023-05-05T01:15:27.644Z,237.48
2023-05-05T01:16:27.727Z,231.85
2023-05-05T01:17:27.800Z,228.89
2023-05-05T01:18:27.785Z,225.87
2023-05-05T01:19:27.821Z,227.35
2023-05-05T01:20:27.808Z,232.03
2023-05-05T01:21:27.846Z,236.12
2023-05-05T01:22:27.873Z,247.08
2023-05-05T01:23:27.905Z,248.72
2023-05-05T01:24:27.941Z,247.09
2023-05-05T01:25:27.987Z,244.48
2023-05-05T01:26:28.023Z,235.00
2023-05-05T01:27:28.030Z,230.84
2023-05-05T01:28:28.065Z,227.47
2023-05-05T01:29:28.126Z,225.86
2023-05-05T01:30:28.169Z,224.45
2023-05-05T01:31:28.235Z,222.68
2023-05-05T01:32:28.272Z,225.19
2023-05-05T01:33:28.287Z,227.70
2023-05-05T01:34:28.288Z,233.10
2023-05-05T01:35:28.317Z,233.18
2023-05-05T01:36:28.352Z,236.06
2023-05-05T01:37:28.373Z,236.70
2023-05-05T01:38:28.422Z,235.12
2023-05-05T01:39:28.505Z,236.41
2023-05-05T01:40:28.512Z,238.69
2023-05-05T01:41:28.534Z,235.18
2023-05-05T01:42:28.570Z,240.21
2023-05-05T01:43:28.609Z,238.68
2023-05-05T01:44:28.634Z,240.12
2023-05-05T01:45:28.758Z,241.53
2023-05-05T01:46:28.752Z,245.96
2023-05-05T01:47:28.777Z,250.00
2023-05-05T01:48:28.787Z,250.00
2023-05-05T01:49:28.853Z,248.51
2023-05-05T01:50:28.879Z,248.81
2023-05-05T01:51:28.914Z,246.78
2023-05-05T01:52:28.978Z,244.49
2023-05-05T01:53:29.019Z,241.97
2023-05-05T01:54:29.041Z,244.22
2023-05-05T01:55:29.096Z,243.93
2023-05-05T01:56:29.165Z,244.85
2023-05-05T01:57:29.198Z,245.51
2023-05-05T01:58:29.194Z,244.92
2023-05-05T01:59:29.217Z,246.12
2023-05-05T02:00:29.253Z,247.72
2023-05-05T02:01:29.331Z,249.25
2023-05-05T02:02:29.412Z,247.23
2023-05-05T02:03:29.420Z,247.59
2023-05-05T02:04:29.403Z,247.53
2023-05-05T02:05:29.429Z,243.20
2023-05-05T02:06:29.467Z,237.54
2023-05-05T02:07:29.516Z,233.41
2023-05-05T02:08:29.519Z,235.05
2023-05-05T02:09:29.575Z,239.37
2023-05-05T02:10:29.590Z,243.20
2023-05-05T02:11:29.637Z,248.73
2023-05-05T02:12:29.701Z,248.79
2023-05-05T02:13:29.705Z,250.00
2023-05-05T02:14:29.726Z,250.00
2023-05-05T02:15:29.806Z,249.29
2023-05-05T02:16:29.788Z,248.16
2023-05-05T02:17:29.854Z,248.48
2023-05-05T02:18:29.861Z,248.67
2023-05-05T02:19:29.888Z,246.62
2023-05-05T02:20:29.900Z,246.25
2023-05-05T02:21:29.915Z,244.66
2023-05-05T02:22:30.020Z,243.16
2023-05-05T02:23:30.013Z,242.55
2023-05-05T02:24:30.060Z,240.45
2023-05-05T02:25:30.069Z,243.40
2023-05-05T02:26:30.118Z,242.24
2023-05-05T02:27:30.145Z,245.30
2023-05-05T02:28:30.246Z,242.92
2023-05-05T02:29:30.199Z,239.25
2023-05-05T02:30:30.264Z,239.18
2023-05-05T02:31:30.329Z,242.41
2023-05-05T02:32:30.443Z,248.96
2023-05-05T02:33:30.376Z,249.90
2023-05-05T02:34:30.411Z,247.04
2023-05-05T02:35:30.440Z,243.24
2023-05-05T02:36:30.502Z,238.06
2023-05-05T02:37:30.520Z,236.28
2023-05-05T02:38:30.571Z,232.90
2023-05-05T02:39:30.614Z,226.89
2023-05-05T02:40:30.629Z,222.57
2023-05-05T02:41:30.675Z,220.87
2023-05-05T02:42:30.739Z,219.74
2023-05-05T02:43:30.760Z,228.02
2023-05-05T02:44:30.781Z,240.22
2023-05-05T02:45:30.819Z,244.24
2023-05-05T02:46:30.910Z,243.40
2023-05-05T02:47:30.905Z,240.06
2023-05-05T02:48:30.936Z,240.81
2023-05-05T02:49:31.051Z,239.42
2023-05-05T02:50:30.993Z,238.50
2023-05-05T02:51:31.014Z,242.60
2023-05-05T02:52:31.052Z,240.97
2023-05-05T02:53:31.086Z,240.96
2023-05-05T02:54:31.072Z,241.57
2023-05-05T02:55:31.120Z,242.16
2023-05-05T02:56:31.158Z,242.31
2023-05-05T02:57:31.212Z,245.05
2023-05-05T02:58:31.255Z,244.62
2023-05-05T02:59:31.304Z,245.51
2023-05-05T03:00:31.336Z,244.04
2023-05-05T03:01:31.404Z,243.31
2023-05-05T03:02:31.517Z,242.33
2023-05-05T03:03:31.518Z,242.25
2023-05-05T03:04:31.484Z,239.34
2023-05-05T03:05:31.516Z,236.19
2023-05-05T03:06:31.529Z,234.96
2023-05-05T03:07:31.560Z,234.80
2023-05-05T03:08:31.614Z,231.32
2023-05-05T03:09:31.661Z,231.34
2023-05-05T03:10:31.714Z,235.89
2023-05-05T03:11:31.710Z,241.57
2023-05-05T03:12:31.789Z,243.68
2023-05-05T03:13:31.803Z,242.26
2023-05-05T03:14:33.438Z,244.37
2023-05-05T03:15:31.867Z,241.51
2023-05-05T03:16:31.935Z,235.81
2023-05-05T03:17:31.996Z,226.56
2023-05-05T03:18:32.066Z,220.52
2023-05-05T03:19:32.112Z,214.45
2023-05-05T03:20:32.018Z,215.85
2023-05-05T03:21:32.126Z,213.61
2023-05-05T03:22:32.173Z,217.92
2023-05-05T03:23:32.175Z,221.51
2023-05-05T03:24:32.150Z,226.32
2023-05-05T03:25:32.190Z,227.07
2023-05-05T03:26:32.217Z,233.64
2023-05-05T03:27:32.238Z,243.03
2023-05-05T03:28:32.245Z,247.45
2023-05-05T03:29:32.303Z,248.09
2023-05-05T03:30:32.326Z,248.21
2023-05-05T03:31:32.543Z,247.86
2023-05-05T03:32:32.451Z,247.67
2023-05-05T03:33:32.424Z,249.40
2023-05-05T03:34:32.419Z,248.96
2023-05-05T03:35:32.470Z,247.55
2023-05-05T03:36:32.476Z,248.91
2023-05-05T03:37:32.497Z,248.30
2023-05-05T03:38:32.541Z,250.00
2023-05-05T03:39:32.569Z,250.00
2023-05-05T03:40:42.956Z,249.45
2023-05-05T03:41:33.601Z,249.62
2023-05-05T03:42:32.597Z,250.59
2023-05-05T03:43:32.577Z,252.28
2023-05-05T03:44:32.585Z,255.04
2023-05-05T03:45:32.577Z,259.13
2023-05-05T03:46:32.548Z,249.31
2023-05-05T03:47:32.593Z,247.85
2023-05-05T03:48:32.557Z,241.21
2023-05-05T03:49:32.546Z,238.65
2023-05-05T03:50:32.522Z,232.63
2023-05-05T03:51:32.534Z,229.12
2023-05-05T03:52:32.523Z,228.49
2023-05-05T03:53:32.562Z,232.92
2023-05-05T03:54:32.571Z,236.08
2023-05-05T03:55:32.631Z,235.92
2023-05-05T03:56:32.662Z,236.01
2023-05-05T03:57:32.716Z,235.96
2023-05-05T03:58:32.759Z,238.97
2023-05-05T03:59:32.780Z,240.47
2023-05-05T04:00:32.822Z,241.86
2023-05-05T04:01:32.825Z,241.18
2023-05-05T04:02:32.983Z,239.64
2023-05-05T04:03:32.985Z,238.63
2023-05-05T04:04:32.988Z,237.56
2023-05-05T04:05:33.002Z,239.71
2023-05-05T04:06:32.993Z,236.68
2023-05-05T04:07:33.033Z,235.61
2023-05-05T04:08:33.106Z,231.02
2023-05-05T04:09:33.135Z,228.33
2023-05-05T04:10:33.164Z,225.59
2023-05-05T04:11:33.236Z,223.41
2023-05-05T04:12:33.307Z,221.35
2023-05-05T04:13:33.328Z,220.19
2023-05-05T04:14:33.373Z,220.95
2023-05-05T04:15:33.398Z,221.66
2023-05-05T04:16:33.526Z,223.28
2023-05-05T04:17:33.546Z,229.78
2023-05-05T04:18:33.579Z,239.57
2023-05-05T04:19:33.597Z,244.38
2023-05-05T04:20:33.628Z,247.07
2023-05-05T04:21:33.681Z,245.96
2023-05-05T04:22:33.715Z,246.56
2023-05-05T04:23:33.799Z,244.14
2023-05-05T04:24:33.830Z,239.89
2023-05-05T04:25:33.868Z,229.91
2023-05-05T04:26:33.898Z,224.35
2023-05-05T04:27:33.944Z,218.34
2023-05-05T04:28:33.986Z,213.38
2023-05-05T04:29:33.998Z,213.26
2023-05-05T04:30:34.019Z,215.05
2023-05-05T04:31:34.143Z,212.90
2023-05-05T04:32:34.150Z,211.80
2023-05-05T04:33:34.128Z,209.87
2023-05-05T04:34:34.174Z,207.53
2023-05-05T04:35:34.179Z,205.29
2023-05-05T04:36:34.211Z,205.40
2023-05-05T04:37:34.257Z,201.79
2023-05-05T04:38:34.393Z,201.43
2023-05-05T04:39:34.354Z,201.89
2023-05-05T04:40:34.396Z,206.18
2023-05-05T04:41:34.412Z,207.61
2023-05-05T04:42:34.428Z,209.66
2023-05-05T04:43:34.459Z,211.04
2023-05-05T04:44:34.500Z,212.83
2023-05-05T04:45:34.516Z,215.96
2023-05-05T04:46:34.597Z,214.17
2023-05-05T04:47:34.623Z,214.84
2023-05-05T04:48:34.640Z,210.76
2023-05-05T04:49:34.755Z,211.43
2023-05-05T04:50:34.710Z,211.38
2023-05-05T04:51:34.767Z,209.42
2023-05-05T04:52:34.790Z,207.81
2023-05-05T04:53:34.807Z,207.87
2023-05-05T04:54:34.831Z,204.22
2023-05-05T04:55:34.857Z,204.97
2023-05-05T04:56:34.870Z,203.18
2023-05-05T04:57:34.908Z,202.22
2023-05-05T04:58:34.944Z,202.90
2023-05-05T04:59:34.970Z,207.05
2023-05-05T05:00:34.994Z,212.39
2023-05-05T05:01:37.668Z,212.50
2023-05-05T05:02:35.072Z,217.01
2023-05-05T05:03:35.151Z,218.79
2023-05-05T05:04:34.997Z,220.03
2023-05-05T05:05:34.993Z,222.41
2023-05-05T05:06:34.975Z,222.10
2023-05-05T05:07:34.975Z,223.64
2023-05-05T05:08:34.973Z,226.20
2023-05-05T05:09:34.983Z,227.79
2023-05-05T05:10:34.960Z,231.06
2023-05-05T05:11:34.951Z,235.54
2023-05-05T05:12:34.964Z,239.81
2023-05-05T05:13:34.929Z,241.59
2023-05-05T05:14:34.914Z,242.61
2023-05-05T05:15:34.913Z,243.51
2023-05-05T05:16:34.930Z,243.78
2023-05-05T05:17:34.928Z,248.67
2023-05-05T05:18:34.911Z,249.80
2023-05-05T05:19:34.888Z,250.00
2023-05-05T05:20:34.884Z,250.00
2023-05-05T05:21:34.867Z,250.00
2023-05-05T05:22:34.879Z,247.83
2023-05-05T05:23:34.872Z,249.98
2023-05-05T05:24:34.854Z,249.58
2023-05-05T05:25:34.853Z,248.46
2023-05-05T05:26:35.072Z,243.72
2023-05-05T05:27:34.824Z,245.00
2023-05-05T05:28:34.815Z,247.23
2023-05-05T05:29:34.839Z,248.29
2023-05-05T05:30:34.798Z,249.69
2023-05-05T05:31:34.870Z,249.68
2023-05-05T05:32:34.829Z,249.46
2023-05-05T05:33:35.055Z,252.02
2023-05-05T05:34:34.788Z,249.54
2023-05-05T05:35:34.788Z,250.00
2023-05-05T05:36:34.782Z,253.09
2023-05-05T05:37:34.766Z,249.63
2023-05-05T05:38:34.768Z,250.33
2023-05-05T05:39:34.766Z,249.55
2023-05-05T05:40:34.744Z,249.75
2023-05-05T05:41:34.738Z,250.22
2023-05-05T05:42:34.725Z,250.00
2023-05-05T05:43:35.054Z,250.00
2023-05-05T05:44:34.736Z,249.61
2023-05-05T05:45:34.698Z,249.84
2023-05-05T05:46:34.952Z,249.77
2023-05-05T05:47:34.767Z,250.14
2023-05-05T05:48:34.708Z,249.35
2023-05-05T05:49:34.684Z,250.00
2023-05-05T05:50:34.685Z,250.00
2023-05-05T05:51:34.715Z,250.00
2023-05-05T05:52:34.762Z,250.06
2023-05-05T05:53:34.814Z,249.34
2023-05-05T05:54:34.857Z,242.86
2023-05-05T05:55:34.893Z,246.40
2023-05-05T05:56:34.932Z,249.53
2023-05-05T05:57:34.971Z,247.54
2023-05-05T05:58:35.026Z,248.56
2023-05-05T05:59:35.055Z,250.00
2023-05-05T06:00:35.086Z,249.79
2023-05-05T06:01:35.138Z,249.57
2023-05-05T06:02:35.247Z,249.72
2023-05-05T06:03:35.386Z,249.42
2023-05-05T06:04:35.276Z,248.81
2023-05-05T06:05:35.291Z,247.19
2023-05-05T06:06:35.325Z,248.38
2023-05-05T06:07:35.417Z,246.67
2023-05-05T06:08:35.693Z,248.69
2023-05-05T06:09:35.443Z,249.43
2023-05-05T06:10:35.633Z,249.49
2023-05-05T06:11:35.519Z,249.99
2023-05-05T06:12:35.584Z,249.30
2023-05-05T06:13:35.596Z,249.23
2023-05-05T06:14:35.633Z,249.54
2023-05-05T06:15:35.703Z,249.43
2023-05-05T06:16:35.711Z,249.18
2023-05-05T06:17:35.790Z,247.00
2023-05-05T06:18:36.065Z,243.97
2023-05-05T06:19:35.807Z,242.70
2023-05-05T06:20:35.837Z,243.21
2023-05-05T06:21:35.845Z,242.49
2023-05-05T06:22:35.900Z,241.75
2023-05-05T06:23:35.951Z,242.20
2023-05-05T06:24:35.977Z,243.35
2023-05-05T06:25:36.031Z,242.88
2023-05-05T06:26:36.051Z,242.44
2023-05-05T06:27:36.078Z,242.07
2023-05-05T06:28:36.089Z,239.13
2023-05-05T06:29:36.080Z,238.71
2023-05-05T06:30:36.144Z,238.93
2023-05-05T06:31:36.591Z,238.59
2023-05-05T06:32:36.264Z,236.56
2023-05-05T06:33:36.225Z,231.55
2023-05-05T06:34:36.276Z,224.94
2023-05-05T06:35:36.316Z,221.52
2023-05-05T06:36:36.413Z,218.21
2023-05-05T06:37:36.394Z,213.72
2023-05-05T06:38:36.430Z,200.97
2023-05-05T06:39:36.436Z,198.70
2023-05-05T06:40:36.491Z,192.83
2023-05-05T06:41:36.510Z,192.87
2023-05-05T06:42:36.537Z,191.19
2023-05-05T06:43:37.083Z,193.46
2023-05-05T06:44:36.629Z,199.60
2023-05-05T06:45:36.663Z,197.98
2023-05-05T06:46:37.117Z,198.09
2023-05-05T06:47:36.727Z,196.37
2023-05-05T06:48:36.775Z,194.54
2023-05-05T06:49:36.800Z,190.91
2023-05-05T06:50:36.835Z,195.29
2023-05-05T06:51:36.877Z,198.13
2023-05-05T06:52:36.916Z,197.00
2023-05-05T06:53:37.080Z,200.58
2023-05-05T06:54:37.017Z,203.21
2023-05-05T06:55:37.055Z,200.28
2023-05-05T06:56:37.110Z,203.46
2023-05-05T06:57:37.224Z,205.34
2023-05-05T06:58:37.206Z,205.51
2023-05-05T06:59:37.204Z,205.30
2023-05-05T07:00:37.294Z,204.59
2023-05-05T07:01:37.301Z,206.67
2023-05-05T07:02:37.367Z,208.45
2023-05-05T07:03:37.377Z,209.86
2023-05-05T07:04:37.366Z,210.13
2023-05-05T07:05:37.403Z,211.71
2023-05-05T07:06:37.424Z,212.84
2023-05-05T07:07:37.401Z,213.82
2023-05-05T07:08:37.618Z,214.02
2023-05-05T07:09:37.459Z,216.38
2023-05-05T07:10:37.418Z,219.58
2023-05-05T07:11:37.637Z,222.47
2023-05-05T07:12:37.557Z,224.23
2023-05-05T07:13:37.644Z,225.74
2023-05-05T07:14:37.591Z,226.56
2023-05-05T07:15:37.586Z,227.01
2023-05-05T07:16:37.697Z,227.00
2023-05-05T07:17:37.631Z,227.24
2023-05-05T07:18:37.630Z,227.38
2023-05-05T07:19:37.677Z,228.21
2023-05-05T07:20:37.753Z,228.74
2023-05-05T07:21:37.765Z,228.60
2023-05-05T07:22:37.784Z,228.45
2023-05-05T07:23:37.842Z,229.44
2023-05-05T07:24:37.826Z,230.21
2023-05-05T07:25:37.878Z,230.72
2023-05-05T07:26:37.889Z,228.58
2023-05-05T07:27:37.899Z,217.13
2023-05-05T07:28:38.117Z,202.89
2023-05-05T07:29:38.095Z,199.84
2023-05-05T07:30:38.156Z,196.86
2023-05-05T07:31:38.153Z,181.81
2023-05-05T07:32:38.114Z,183.40
2023-05-05T07:33:38.065Z,185.97
2023-05-05T07:34:38.159Z,186.97
2023-05-05T07:35:38.127Z,189.55
2023-05-05T07:36:38.169Z,193.82
2023-05-05T07:37:38.197Z,195.22
2023-05-05T07:38:38.209Z,197.69
2023-05-05T07:39:38.228Z,196.76
2023-05-05T07:40:38.266Z,199.97
2023-05-05T07:41:38.341Z,200.31
2023-05-05T07:42:38.344Z,200.36
2023-05-05T07:43:39.425Z,198.24
2023-05-05T07:44:38.431Z,196.71
2023-05-05T07:45:38.817Z,196.44
2023-05-05T07:46:38.532Z,193.10
2023-05-05T07:47:38.565Z,193.16
2023-05-05T07:48:38.618Z,193.43
2023-05-05T07:49:38.603Z,191.86
2023-05-05T07:50:38.627Z,191.32
2023-05-05T07:51:38.671Z,190.93
2023-05-05T07:53:40.123Z,192.63
2023-05-05T07:54:38.689Z,194.04
2023-05-05T07:55:38.663Z,195.65
2023-05-05T07:56:38.671Z,200.38
2023-05-05T07:57:38.649Z,208.50
2023-05-05T07:58:38.641Z,209.98
2023-05-05T07:59:39.605Z,206.01
2023-05-05T08:00:38.630Z,202.09
2023-05-05T08:01:38.688Z,199.49
2023-05-05T08:02:38.729Z,198.98
2023-05-05T08:03:38.842Z,198.32
2023-05-05T08:04:38.661Z,198.33
2023-05-05T08:05:38.618Z,198.63
2023-05-05T08:06:38.585Z,197.90
2023-05-05T08:07:38.593Z,197.73
2023-05-05T08:08:38.622Z,197.82
2023-05-05T08:09:39.125Z,195.85
2023-05-05T08:10:38.661Z,195.74
2023-05-05T08:11:38.700Z,192.19
2023-05-05T08:12:38.783Z,203.45
2023-05-05T08:13:38.796Z,202.89
2023-05-05T08:14:38.812Z,164.90
2023-05-05T08:15:38.896Z,151.06
2023-05-05T08:16:38.897Z,139.67
2023-05-05T08:17:39.175Z,121.41
2023-05-05T08:18:38.985Z,108.27
2023-05-05T08:19:39.151Z,105.24
2023-05-05T08:20:39.073Z,102.18
2023-05-05T08:21:39.130Z,103.31
2023-05-05T08:22:39.116Z,115.66
2023-05-05T08:23:39.503Z,122.19
2023-05-05T08:24:39.162Z,133.58
2023-05-05T08:25:39.191Z,140.18
2023-05-05T08:26:39.199Z,151.49
2023-05-05T08:27:39.266Z,159.23
2023-05-05T08:28:39.276Z,165.94
2023-05-05T08:29:39.308Z,170.08
2023-05-05T08:30:39.355Z,168.31
2023-05-05T08:31:39.402Z,169.78
2023-05-05T08:32:39.441Z,165.88
2023-05-05T08:33:39.521Z,162.05
2023-05-05T08:34:39.465Z,159.97
2023-05-05T08:35:39.526Z,158.66
2023-05-05T08:36:39.533Z,162.20
2023-05-05T08:37:39.583Z,162.10
2023-05-05T08:38:39.617Z,163.71
2023-05-05T08:39:39.666Z,170.65
2023-05-05T08:40:39.671Z,176.95
2023-05-05T08:41:39.707Z,181.06
2023-05-05T08:42:40.167Z,183.13
2023-05-05T08:43:39.764Z,184.89
2023-05-05T08:44:39.820Z,187.93
2023-05-05T08:45:39.823Z,188.32
2023-05-05T08:46:39.845Z,190.81
2023-05-05T08:47:40.288Z,192.41
2023-05-05T08:48:39.836Z,194.90
2023-05-05T08:49:39.956Z,200.32
2023-05-05T08:50:39.916Z,200.44
2023-05-05T08:51:39.975Z,199.95
2023-05-05T08:52:40.074Z,198.97
2023-05-05T08:53:40.047Z,198.24
2023-05-05T08:54:40.123Z,198.80
2023-05-05T08:55:40.094Z,199.04
2023-05-05T08:56:40.137Z,201.21
2023-05-05T08:57:40.185Z,200.83
2023-05-05T08:58:40.245Z,200.14
2023-05-05T08:59:40.292Z,202.36
2023-05-05T09:00:40.332Z,203.25
2023-05-05T09:01:40.327Z,204.69
2023-05-05T09:02:40.451Z,206.44
2023-05-05T09:03:40.419Z,205.78
2023-05-05T09:04:40.481Z,205.11
2023-05-05T09:05:40.599Z,206.22
2023-05-05T09:06:40.549Z,204.48
2023-05-05T09:07:40.612Z,205.11
2023-05-05T09:08:40.619Z,208.04
2023-05-05T09:09:40.642Z,209.69
2023-05-05T09:10:40.686Z,209.61
2023-05-05T09:11:40.674Z,212.15
2023-05-05T09:12:40.780Z,215.05
2023-05-05T09:13:40.703Z,215.78
2023-05-05T09:14:40.696Z,217.51
2023-05-05T09:15:40.764Z,219.46
2023-05-05T09:16:40.837Z,222.75
2023-05-05T09:17:40.877Z,223.47
2023-05-05T09:18:40.859Z,221.82
2023-05-05T09:19:40.875Z,220.94
2023-05-05T09:20:40.930Z,220.90
2023-05-05T09:21:41.015Z,220.23
2023-05-05T09:22:40.961Z,217.31
2023-05-05T09:23:41.025Z,216.49
2023-05-05T09:24:41.002Z,216.98
2023-05-05T09:25:41.237Z,220.12
2023-05-05T09:26:41.098Z,214.12
2023-05-05T09:27:41.132Z,205.64
2023-05-05T09:28:41.283Z,204.46
2023-05-05T09:29:41.219Z,204.40
2023-05-05T09:30:41.214Z,185.14
2023-05-05T09:31:41.197Z,185.92
2023-05-05T09:32:41.689Z,195.79
2023-05-05T09:33:41.264Z,158.34
2023-05-05T09:34:41.331Z,125.64
2023-05-05T09:35:41.334Z,104.42
2023-05-05T09:36:41.398Z,94.07
2023-05-05T09:37:41.517Z,83.80
2023-05-05T09:38:41.449Z,65.91
2023-05-05T09:39:41.497Z,59.47
2023-05-05T09:40:41.561Z,47.42
2023-05-05T09:41:41.589Z,35.48
2023-05-05T09:42:41.594Z,48.11
2023-05-05T09:43:41.611Z,45.38
2023-05-05T09:44:41.616Z,35.00
2023-05-05T09:45:41.650Z,46.67
2023-05-05T09:46:41.742Z,60.32
2023-05-05T09:47:41.739Z,67.04
2023-05-05T09:48:41.780Z,67.45
2023-05-05T09:49:41.816Z,66.40
2023-05-05T09:50:41.854Z,56.30
2023-05-05T09:51:41.886Z,52.63
2023-05-05T09:52:41.927Z,64.04
2023-05-05T09:53:42.005Z,73.86
2023-05-05T09:54:42.007Z,76.98
2023-05-05T09:55:42.026Z,56.94
2023-05-05T09:56:42.054Z,52.96
2023-05-05T09:57:42.068Z,40.32
2023-05-05T09:58:42.196Z,24.20
2023-05-05T09:59:42.103Z,27.55
2023-05-05T10:00:42.112Z,31.28
2023-05-05T10:01:42.152Z,29.80
2023-05-05T10:02:42.238Z,25.00
2023-05-05T10:03:42.208Z,44.09
2023-05-05T10:04:42.680Z,65.32
2023-05-05T10:05:42.525Z,67.61
2023-05-05T10:06:42.289Z,75.71
2023-05-05T10:07:42.315Z,61.30
2023-05-05T10:08:42.344Z,58.59
2023-05-05T10:09:42.438Z,55.86
2023-05-05T10:10:42.415Z,59.33
2023-05-05T10:11:42.394Z,71.61
2023-05-05T10:12:42.460Z,78.53
2023-05-05T10:13:42.416Z,47.28
2023-05-05T10:14:42.435Z,28.53
2023-05-05T10:15:42.466Z,29.38
2023-05-05T10:16:42.634Z,36.85
2023-05-05T10:17:47.890Z,51.78
2023-05-05T10:18:43.548Z,52.09
2023-05-05T10:19:42.521Z,54.58
2023-05-05T10:20:42.496Z,61.10
2023-05-05T10:21:42.632Z,57.70
2023-05-05T10:22:42.507Z,38.58
2023-05-05T10:23:42.466Z,33.58
2023-05-05T10:24:42.464Z,25.14
2023-05-05T10:25:42.976Z,32.34
2023-05-05T10:26:42.478Z,42.95
2023-05-05T10:27:42.480Z,48.32
2023-05-05T10:28:42.446Z,37.14
2023-05-05T10:29:42.601Z,24.82
2023-05-05T10:30:42.421Z,26.36
2023-05-05T10:31:42.485Z,41.27
2023-05-05T10:33:42.796Z,67.62
2023-05-05T10:34:42.485Z,80.06
2023-05-05T10:35:42.521Z,94.84
2023-05-05T10:36:42.452Z,105.04
2023-05-05T10:37:42.492Z,109.92
2023-05-05T10:38:42.455Z,112.93
2023-05-05T10:39:42.466Z,120.01
2023-05-05T10:40:42.444Z,126.79
2023-05-05T10:41:42.477Z,138.98
2023-05-05T10:42:42.428Z,143.64
2023-05-05T10:43:42.404Z,148.49
2023-05-05T10:44:42.429Z,154.08
2023-05-05T10:45:42.537Z,160.43
2023-05-05T10:46:42.549Z,165.12
2023-05-05T10:47:42.430Z,171.26
2023-05-05T10:48:42.443Z,177.22
2023-05-05T10:49:42.389Z,185.32
2023-05-05T10:50:42.379Z,190.63
2023-05-05T10:51:42.342Z,193.78
2023-05-05T10:52:42.356Z,190.73
2023-05-05T10:53:42.435Z,189.71
2023-05-05T10:54:42.348Z,190.90
2023-05-05T10:55:42.369Z,197.22
2023-05-05T10:56:42.352Z,204.81
2023-05-05T10:57:42.455Z,211.82
2023-05-05T10:58:58.469Z,217.33
2023-05-05T10:59:43.705Z,217.49
2023-05-05T11:00:42.302Z,218.08
2023-05-05T11:01:42.332Z,220.28
2023-05-05T11:02:42.307Z,222.58
2023-05-05T11:03:42.322Z,225.00
2023-05-05T11:04:42.275Z,227.35
2023-05-05T11:05:42.263Z,228.62
2023-05-05T11:06:42.263Z,230.38
2023-05-05T11:07:42.252Z,231.07
2023-05-05T11:08:42.247Z,226.37
2023-05-05T11:09:42.724Z,223.19
2023-05-05T11:10:42.288Z,220.65
2023-05-05T11:11:42.368Z,217.09
2023-05-05T11:12:42.409Z,214.27
2023-05-05T11:13:42.470Z,206.04
2023-05-05T11:14:42.696Z,205.73
2023-05-05T11:15:42.464Z,179.87
2023-05-05T11:16:42.586Z,174.99
2023-05-05T11:17:42.479Z,183.60
2023-05-05T11:18:42.516Z,177.94
2023-05-05T11:19:42.706Z,164.74
2023-05-05T11:20:42.552Z,151.64
2023-05-05T11:21:42.576Z,156.05
2023-05-05T11:22:42.634Z,161.18
2023-05-05T11:23:42.679Z,158.20
2023-05-05T11:24:42.731Z,160.67
2023-05-05T11:25:42.797Z,146.80
2023-05-05T11:26:42.824Z,140.35
2023-05-05T11:27:42.856Z,129.40
2023-05-05T11:28:42.893Z,132.31
2023-05-05T11:29:42.980Z,132.32
2023-05-05T11:30:42.981Z,142.33
2023-05-05T11:31:42.988Z,146.86
2023-05-05T11:32:43.047Z,142.78
2023-05-05T11:33:43.029Z,143.14
2023-05-05T11:34:43.087Z,144.61
2023-05-05T11:35:43.093Z,142.30
2023-05-05T11:36:43.126Z,141.16
2023-05-05T11:37:43.152Z,140.32
2023-05-05T11:38:43.223Z,135.94
2023-05-05T11:39:43.226Z,137.22
2023-05-05T11:40:43.271Z,138.87
2023-05-05T11:41:43.310Z,139.21
2023-05-05T11:42:43.384Z,138.49
2023-05-05T11:43:43.413Z,138.71
2023-05-05T11:44:43.454Z,139.47
2023-05-05T11:45:43.511Z,140.82
2023-05-05T11:46:43.570Z,137.50
2023-05-05T11:47:43.593Z,136.80
2023-05-05T11:48:43.581Z,138.85
2023-05-05T11:49:43.612Z,139.33
2023-05-05T11:50:43.670Z,144.30
2023-05-05T11:51:43.708Z,147.01
2023-05-05T11:52:43.725Z,143.30
2023-05-05T11:53:43.801Z,143.81
2023-05-05T11:54:43.834Z,139.37
2023-05-05T11:55:43.870Z,145.99
2023-05-05T11:56:43.918Z,142.08
2023-05-05T11:57:43.907Z,143.52
2023-05-05T11:58:43.920Z,144.11
2023-05-05T11:59:43.942Z,146.68
2023-05-05T12:00:43.961Z,144.03
2023-05-05T12:01:44.020Z,139.72
2023-05-05T12:02:44.046Z,141.72
2023-05-05T12:03:44.078Z,141.54
2023-05-05T12:04:44.014Z,138.49
2023-05-05T12:05:43.975Z,141.68
2023-05-05T12:06:43.998Z,139.39
2023-05-05T12:07:43.996Z,133.95
2023-05-05T12:08:44.077Z,136.61
2023-05-05T12:09:44.038Z,144.58
2023-05-05T12:10:44.073Z,137.62
2023-05-05T12:11:44.095Z,135.30
2023-05-05T12:12:44.172Z,138.25
2023-05-05T12:13:44.193Z,142.37
2023-05-05T12:14:44.216Z,138.87
2023-05-05T12:15:44.229Z,140.25
2023-05-05T12:16:44.332Z,145.95
2023-05-05T12:17:44.289Z,145.48
2023-05-05T12:18:44.285Z,149.19
2023-05-05T12:19:44.394Z,150.85
2023-05-05T12:20:44.358Z,143.74
2023-05-05T12:21:44.399Z,145.31
2023-05-05T12:22:44.403Z,137.58
2023-05-05T12:23:44.472Z,135.25
2023-05-05T12:24:44.500Z,134.09
2023-05-05T12:25:44.486Z,130.58
2023-05-05T12:26:44.492Z,133.31
2023-05-05T12:27:44.641Z,132.43
2023-05-05T12:28:44.548Z,138.77
2023-05-05T12:29:44.584Z,139.31
2023-05-05T12:30:44.632Z,135.22
2023-05-05T12:31:44.654Z,130.38
2023-05-05T12:32:44.712Z,133.00